Time;durP1;ratioP1;P1;durP2;ratioP2;P2;SDS_P1;SDS_P2;PMS_P1;PMS_P2;Temp;Humidity;BMP_temperature;BMP_pressure;BME280_temperature;BME280_humidity;BME280_pressure;Samples;Min_cycle;Max_cycle;Signal;HPM_P1;HPM_P2
2022/03/31 00:01:15;;;;;;;12.70;7.57;;;7.70;99.90;;;8.64;100.00;96387.06;4982555;28;20484;-75
2022/03/31 00:03:47;;;;;;;16.57;9.23;;;7.70;99.90;;;8.64;100.00;96392.25;4982757;28;20993;-74
2022/03/31 00:06:17;;;;;;;13.97;8.00;;;7.80;99.90;;;8.62;100.00;96389.88;4983486;28;20862;-74
2022/03/31 00:08:46;;;;;;;13.70;9.03;;;7.80;99.90;;;8.59;100.00;96388.50;4982806;28;20456;-74
2022/03/31 00:11:17;;;;;;;17.10;8.40;;;7.80;99.90;;;8.59;100.00;96396.31;4983018;28;20460;-74
2022/03/31 00:13:49;;;;;;;12.60;7.67;;;7.70;99.90;;;8.57;100.00;96387.88;4977268;28;20453;-74
2022/03/31 00:16:18;;;;;;;14.33;9.30;;;7.70;99.90;;;8.56;100.00;96391.53;4981825;28;21069;-74
2022/03/31 00:18:48;;;;;;;14.70;9.20;;;7.70;99.90;;;8.50;100.00;96399.41;4983467;28;20452;-75
2022/03/31 00:21:19;;;;;;;16.00;9.57;;;7.50;99.90;;;8.51;100.00;96393.97;4982947;28;20460;-75
2022/03/31 00:23:48;;;;;;;14.50;8.20;;;7.50;99.90;;;8.52;100.00;96398.19;4983298;28;20478;-74
2022/03/31 00:26:20;;;;;;;15.73;10.07;;;7.60;99.90;;;8.49;100.00;96398.59;4983343;28;20491;-74
2022/03/31 00:28:52;;;;;;;17.07;8.33;;;7.60;99.90;;;8.50;100.00;96392.38;4983453;28;20452;-75
2022/03/31 00:31:22;;;;;;;16.43;9.47;;;7.60;99.90;;;8.52;100.00;96394.78;4983813;28;20472;-74
2022/03/31 00:33:52;;;;;;;19.13;11.63;;;7.60;99.90;;;8.52;100.00;96392.97;4985384;28;20559;-74
2022/03/31 00:36:22;;;;;;;21.10;11.27;;;7.60;99.90;;;8.54;100.00;96390.13;4983564;28;20452;-75
2022/03/31 00:41:40;;;;;;;15.10;9.60;;;7.70;99.90;;;8.55;100.00;96384.72;4983906;28;20962;-74
2022/03/31 00:44:10;;;;;;;18.63;10.83;;;7.70;99.90;;;8.55;100.00;96379.50;4985151;28;20448;-75
2022/03/31 00:46:49;;;;;;;21.07;11.40;;;7.70;99.90;;;8.57;100.00;96382.69;4983374;28;20490;-74
2022/03/31 00:49:19;;;;;;;25.63;12.33;;;7.80;99.90;;;8.58;100.00;96375.66;4986344;28;20439;-74
2022/03/31 00:51:50;;;;;;;20.03;10.73;;;7.70;99.90;;;8.58;100.00;96379.06;4983053;28;20494;-74
2022/03/31 00:54:25;;;;;;;19.20;10.70;;;7.80;99.90;;;8.58;100.00;96376.47;4984633;28;21079;-74
2022/03/31 00:56:57;;;;;;;18.00;10.60;;;7.70;99.90;;;8.61;100.00;96379.66;4983268;28;21093;-74
2022/03/31 00:59:30;;;;;;;21.60;11.47;;;7.70;99.90;;;8.61;100.00;96371.84;4984444;28;20472;-74
2022/03/31 01:02:02;;;;;;;20.40;10.63;;;7.70;99.90;;;8.61;100.00;96364.81;4982845;28;20460;-74
2022/03/31 01:04:34;;;;;;;22.50;10.97;;;7.70;99.90;;;8.63;100.00;96360.19;4983584;28;20479;-74
2022/03/31 01:07:06;;;;;;;22.70;11.60;;;7.60;99.90;;;8.63;100.00;96354.19;4984720;28;20900;-75
2022/03/31 01:09:36;;;;;;;18.50;11.90;;;7.70;99.90;;;8.63;100.00;96351.59;4984173;28;20791;-74
2022/03/31 01:12:08;;;;;;;17.30;10.50;;;7.70;99.90;;;8.65;100.00;96352.16;4983439;28;20511;-74
2022/03/31 01:14:39;;;;;;;22.03;11.07;;;7.70;99.90;;;8.65;100.00;96341.72;4987290;28;20599;-74
2022/03/31 01:17:09;;;;;;;18.43;10.87;;;7.80;99.90;;;8.63;100.00;96339.34;4987028;28;20522;-75
2022/03/31 01:19:39;;;;;;;15.60;9.57;;;7.70;99.90;;;8.64;100.00;96340.97;4986822;28;20483;-74
2022/03/31 01:22:09;;;;;;;21.13;12.07;;;7.80;99.90;;;8.61;100.00;96332.78;4986655;28;20480;-74
2022/03/31 01:24:41;;;;;;;19.27;10.90;;;7.80;99.90;;;8.57;100.00;96327.97;4986500;28;20498;-75
2022/03/31 01:27:11;;;;;;;22.70;13.07;;;7.70;99.90;;;8.58;100.00;96321.75;4986487;28;20472;-74
2022/03/31 01:30:04;;;;;;;22.70;13.40;;;7.70;99.90;;;8.58;100.00;96313.16;4986480;28;20443;-75
2022/03/31 01:32:35;;;;;;;28.20;14.00;;;7.70;99.90;;;8.53;100.00;96303.41;4985415;28;20538;-74
2022/03/31 01:35:10;;;;;;;23.87;14.30;;;7.80;99.90;;;8.52;100.00;96295.78;4986038;28;20448;-75
2022/03/31 01:37:39;;;;;;;26.60;12.67;;;7.80;99.90;;;8.52;100.00;96296.59;4985303;28;20442;-74
2022/03/31 01:40:12;;;;;;;22.53;12.97;;;7.80;99.90;;;8.51;100.00;96294.97;4985446;28;20448;-74
2022/03/31 01:42:44;;;;;;;28.33;14.10;;;7.80;99.90;;;8.51;100.00;96297.59;4985910;28;20436;-75
2022/03/31 01:45:17;;;;;;;27.20;13.83;;;7.70;99.90;;;8.52;100.00;96295.78;4985989;28;20471;-75
2022/03/31 01:47:47;;;;;;;24.30;13.87;;;7.70;99.90;;;8.50;100.00;96295.22;4985768;28;20701;-74
2022/03/31 01:50:17;;;;;;;23.07;13.20;;;7.80;99.90;;;8.45;100.00;96301.06;4985690;28;20464;-74
2022/03/31 01:52:48;;;;;;;26.23;15.40;;;7.80;99.90;;;8.41;100.00;96304.31;4986163;28;20462;-74
2022/03/31 01:55:22;;;;;;;26.53;14.60;;;7.80;99.90;;;8.32;100.00;96290.00;4985228;28;20849;-74
2022/03/31 01:57:52;;;;;;;25.90;13.57;;;7.70;99.90;;;8.32;100.00;96296.00;4985364;28;20547;-75
2022/03/31 02:00:21;;;;;;;23.63;14.00;;;7.50;99.90;;;8.30;100.00;96286.78;4985617;28;20488;-74
2022/03/31 02:02:50;;;;;;;20.13;12.67;;;7.40;99.90;;;8.32;100.00;96290.78;4984724;28;20570;-74
2022/03/31 02:05:20;;;;;;;19.60;12.67;;;7.40;99.90;;;8.32;100.00;96284.78;4984668;28;20457;-74
2022/03/31 02:07:56;;;;;;;27.20;13.97;;;7.40;99.90;;;8.35;100.00;96279.94;4983771;28;20480;-74
2022/03/31 02:10:26;;;;;;;24.77;13.60;;;7.40;99.90;;;8.36;100.00;96278.13;4985739;28;20848;-74
2022/03/31 02:12:57;;;;;;;23.67;13.13;;;7.50;99.90;;;8.34;100.00;96286.16;4985991;28;20935;-74
2022/03/31 02:15:26;;;;;;;27.33;14.60;;;7.50;99.90;;;8.32;100.00;96290.78;4986337;28;20487;-74
2022/03/31 02:17:59;;;;;;;27.00;12.47;;;7.50;99.90;;;8.28;100.00;96284.41;4986364;28;20478;-75
2022/03/31 02:20:30;;;;;;;25.63;13.17;;;7.40;99.90;;;8.29;100.00;96280.81;4986416;28;20558;-74
2022/03/31 02:23:01;;;;;;;22.40;13.73;;;7.40;99.90;;;8.28;100.00;96278.38;4986567;28;20444;-74
2022/03/31 02:25:34;;;;;;;20.30;11.80;;;7.40;99.90;;;8.26;100.00;96281.19;4985498;28;20820;-75
2022/03/31 02:28:07;;;;;;;27.70;14.37;;;7.30;99.90;;;8.24;100.00;96279.81;4987031;28;20511;-74
2022/03/31 02:30:37;;;;;;;31.30;15.53;;;7.30;99.90;;;8.21;100.00;96278.44;4986233;28;20953;-74
2022/03/31 02:33:08;;;;;;;24.50;13.90;;;7.30;99.90;;;8.19;100.00;96272.66;4986330;28;20448;-74
2022/03/31 02:35:39;;;;;;;24.83;13.30;;;7.30;99.90;;;8.20;100.00;96269.03;4986214;28;20491;-75
2022/03/31 02:38:09;;;;;;;22.07;13.47;;;7.30;99.90;;;8.18;100.00;96267.66;4984905;28;20438;-75
2022/03/31 02:40:42;;;;;;;25.30;14.47;;;7.30;99.90;;;8.17;100.00;96263.47;4984871;28;20463;-75
2022/03/31 02:43:12;;;;;;;21.03;13.43;;;7.20;99.90;;;8.13;100.00;96260.50;4985391;28;20857;-75
2022/03/31 02:45:42;;;;;;;24.30;13.90;;;7.30;99.90;;;8.11;100.00;96257.31;4985868;28;20511;-74
2022/03/31 02:48:12;;;;;;;25.93;14.17;;;7.30;99.90;;;8.09;100.00;96260.13;4984768;28;20443;-74
2022/03/31 02:50:43;;;;;;;29.40;14.03;;;7.40;99.90;;;8.08;100.00;96257.75;4985676;28;20876;-74
2022/03/31 02:56:01;;;;;;;26.90;14.00;;;7.20;99.90;;;8.13;100.00;96249.28;4986435;28;20480;-74
2022/03/31 02:58:31;;;;;;;23.80;12.90;;;7.30;99.90;;;8.12;100.00;96250.31;4985368;28;21268;-74
2022/03/31 03:01:02;;;;;;;22.63;14.23;;;7.30;99.90;;;8.14;100.00;96245.69;4985391;28;20526;-74
2022/03/31 03:03:33;;;;;;;22.87;14.97;;;7.30;99.90;;;8.16;100.00;96248.88;4985366;28;20535;-74
2022/03/31 03:06:03;;;;;;;26.30;14.90;;;7.30;99.90;;;8.19;100.00;96251.81;4985200;28;21178;-74
2022/03/31 03:08:32;;;;;;;28.93;15.97;;;7.30;99.90;;;8.15;100.00;96253.28;4976880;28;20475;-74
2022/03/31 03:11:04;;;;;;;35.20;18.00;;;7.40;99.90;;;8.14;100.00;96250.88;4982751;28;20456;-74
2022/03/31 03:13:35;;;;;;;30.60;16.60;;;7.40;99.90;;;8.12;100.00;96243.31;4982804;28;20455;-74
2022/03/31 03:16:08;;;;;;;30.27;17.10;;;7.40;99.90;;;8.14;100.00;96241.28;4982332;28;20447;-74
2022/03/31 03:18:42;;;;;;;31.57;17.97;;;7.40;99.90;;;8.14;100.00;96241.28;4982101;28;20455;-74
2022/03/31 03:21:11;;;;;;;28.70;17.20;;;7.50;99.90;;;8.16;100.00;96238.47;4982808;28;20905;-74
2022/03/31 03:23:41;;;;;;;25.67;16.40;;;7.40;99.90;;;8.18;100.00;96237.22;4983839;28;20531;-75
2022/03/31 03:26:13;;;;;;;31.00;17.20;;;7.50;99.90;;;8.20;100.00;96237.81;4983550;28;20900;-74
2022/03/31 03:28:44;;;;;;;30.63;17.50;;;7.40;99.90;;;8.21;100.00;96231.59;4983532;28;20523;-74
2022/03/31 03:31:14;;;;;;;30.33;17.77;;;7.40;99.90;;;8.20;100.00;96230.00;4984041;28;21113;-74
2022/03/31 03:33:43;;;;;;;36.03;19.10;;;7.30;99.90;;;8.21;100.00;96225.56;4983047;28;20502;-74
2022/03/31 03:36:15;;;;;;;30.07;16.77;;;7.40;99.90;;;8.21;100.00;96226.38;4982882;28;20456;-74
2022/03/31 03:38:47;;;;;;;33.43;18.77;;;7.30;99.90;;;8.25;100.00;96227.53;4982321;28;20706;-74
2022/03/31 03:41:19;;;;;;;34.33;18.70;;;7.40;99.90;;;8.26;100.00;96225.75;4983742;28;20522;-74
2022/03/31 03:43:50;;;;;;;33.43;18.10;;;7.50;99.90;;;8.24;100.00;96222.53;4982811;28;20464;-74
2022/03/31 03:46:23;;;;;;;39.27;19.87;;;7.40;99.90;;;8.26;100.00;96225.75;4984724;28;20864;-74
2022/03/31 03:48:52;;;;;;;34.00;17.97;;;7.50;99.90;;;8.24;100.00;96225.94;4984212;28;20839;-74
2022/03/31 03:51:23;;;;;;;31.87;17.90;;;7.40;99.90;;;8.22;100.00;96222.78;4984225;28;20458;-74
2022/03/31 03:53:54;;;;;;;27.63;16.97;;;7.40;99.90;;;8.24;100.00;96215.53;4984039;28;20467;-74
2022/03/31 03:56:26;;;;;;;30.50;18.10;;;7.30;99.90;;;8.19;100.00;96212.00;4984396;28;20446;-74
2022/03/31 03:58:55;;;;;;;35.10;18.80;;;7.50;99.90;;;8.15;100.00;96214.25;4983975;28;20472;-74
2022/03/31 04:01:25;;;;;;;36.17;19.30;;;7.40;99.90;;;8.17;100.00;96214.81;4983821;28;20815;-74
2022/03/31 04:03:55;;;;;;;34.80;19.20;;;7.30;99.90;;;8.18;100.00;96211.19;4985195;28;20463;-74
2022/03/31 04:06:25;;;;;;;36.87;18.73;;;7.40;99.90;;;8.19;100.00;96207.56;4985269;28;20458;-74
2022/03/31 04:08:55;;;;;;;31.83;18.13;;;7.50;99.90;;;8.19;100.00;96207.56;4984087;28;20440;-74
2022/03/31 04:11:26;;;;;;;34.83;19.33;;;7.50;99.90;;;8.17;100.00;96203.59;4983596;28;20452;-74
2022/03/31 04:13:57;;;;;;;30.23;18.07;;;7.40;99.90;;;8.12;100.00;96201.66;4982975;28;20865;-74
2022/03/31 04:16:28;;;;;;;30.50;17.63;;;7.30;99.90;;;8.13;100.00;96200.63;4984950;28;20444;-74
2022/03/31 04:18:58;;;;;;;36.97;19.50;;;7.40;99.90;;;8.12;100.00;96206.88;4984638;28;20444;-74
2022/03/31 04:21:29;;;;;;;36.47;19.10;;;7.30;99.90;;;8.14;100.00;96210.03;4984262;28;20476;-74
2022/03/31 04:23:59;;;;;;;36.57;19.20;;;7.40;99.90;;;8.12;100.00;96206.88;4984827;28;20436;-74
2022/03/31 04:26:31;;;;;;;36.37;18.93;;;7.30;99.90;;;8.13;100.00;96198.03;4985188;28;20452;-74
2022/03/31 04:29:02;;;;;;;33.37;19.67;;;7.30;99.90;;;8.11;100.00;96200.06;4983114;28;20934;-74
2022/03/31 04:31:31;;;;;;;33.63;19.90;;;7.30;99.90;;;8.11;100.00;96192.25;4984249;28;20459;-74
2022/03/31 04:34:00;;;;;;;32.07;18.90;;;7.40;99.90;;;8.10;100.00;96199.25;4983722;28;20877;-74
2022/03/31 04:36:31;;;;;;;35.33;18.03;;;7.40;99.90;;;8.08;100.00;96195.28;4983852;28;21005;-74
2022/03/31 04:39:02;;;;;;;36.73;18.60;;;7.40;99.90;;;8.04;100.00;96186.31;4984293;28;20454;-74
2022/03/31 04:41:33;;;;;;;29.20;16.67;;;7.50;99.90;;;7.95;100.00;96185.00;4984868;28;20883;-74
2022/03/31 04:44:02;;;;;;;27.07;16.73;;;7.40;99.90;;;7.86;100.00;96179.28;4983320;28;20491;-74
2022/03/31 04:46:33;;;;;;;27.77;16.70;;;7.30;99.90;;;7.82;100.00;96187.75;4983204;28;20452;-74
2022/03/31 04:49:03;;;;;;;30.50;16.63;;;7.20;99.90;;;7.78;100.00;96183.97;4985082;28;20554;-74
2022/03/31 04:51:34;;;;;;;28.70;17.87;;;7.20;99.90;;;7.77;100.00;96187.59;4985610;28;20804;-74
2022/03/31 04:54:03;;;;;;;27.80;16.50;;;7.20;99.90;;;7.76;100.00;96183.41;4985434;28;20852;-74
2022/03/31 04:56:33;;;;;;;31.97;17.13;;;7.20;99.90;;;7.72;100.00;96179.63;4985449;28;21035;-74
2022/03/31 04:59:03;;;;;;;31.97;16.67;;;7.20;99.90;;;7.71;100.00;96188.44;4985547;28;20518;-74
2022/03/31 05:01:34;;;;;;;30.67;17.17;;;7.10;99.90;;;7.70;100.00;96194.69;4985253;28;20933;-74
2022/03/31 05:04:03;;;;;;;27.90;15.50;;;7.10;99.90;;;7.69;100.00;96198.28;4985859;28;20509;-74
2022/03/31 05:06:33;;;;;;;35.20;17.53;;;7.10;99.90;;;7.67;100.00;96197.72;4985723;28;20791;-74
2022/03/31 05:09:02;;;;;;;29.27;17.17;;;7.10;99.90;;;7.67;100.00;96190.69;4985373;28;20992;-74
2022/03/31 05:11:33;;;;;;;29.90;17.03;;;7.20;99.90;;;7.65;100.00;96189.31;4984794;28;20467;-74
2022/03/31 05:14:03;;;;;;;31.73;17.70;;;7.10;99.90;;;7.68;100.00;96181.88;4980328;28;20468;-74
2022/03/31 05:16:33;;;;;;;30.93;17.33;;;7.00;99.90;;;7.70;100.00;96190.28;4983730;28;20518;-74
2022/03/31 05:19:02;;;;;;;81.10;42.80;;;7.00;99.90;;;7.66;100.00;96191.72;4981552;28;20475;-74
2022/03/31 05:21:32;;;;;;;31.37;16.40;;;7.10;99.90;;;7.65;100.00;96189.31;4976159;28;20475;-74
2022/03/31 05:24:03;;;;;;;26.10;16.20;;;7.10;99.90;;;7.64;100.00;96187.72;4984363;28;20577;-74
2022/03/31 05:26:35;;;;;;;28.13;17.90;;;7.10;99.90;;;7.62;100.00;96187.13;4982809;28;21256;-74
2022/03/31 05:29:06;;;;;;;31.07;17.07;;;7.00;99.90;;;7.65;100.00;96184.09;4985823;28;20487;-74
2022/03/31 05:31:36;;;;;;;28.53;17.83;;;7.00;99.90;;;7.68;100.00;96188.88;4980434;28;20465;-74
2022/03/31 05:34:06;;;;;;;29.80;17.60;;;7.00;99.90;;;7.68;100.00;96183.66;4983952;28;20503;-74
2022/03/31 05:36:37;;;;;;;35.13;18.80;;;7.00;99.90;;;7.67;100.00;96188.06;4984165;28;20805;-74
2022/03/31 05:39:12;;;;;;;30.97;17.30;;;7.00;99.90;;;7.66;100.00;96188.31;4983022;28;20463;-74
2022/03/31 05:41:42;;;;;;;29.90;15.83;;;7.10;99.90;;;7.63;100.00;96186.94;4984097;28;20475;-74
2022/03/31 05:44:13;;;;;;;27.77;16.07;;;7.00;99.90;;;7.66;100.00;96190.91;4986579;28;20471;-74
2022/03/31 05:46:44;;;;;;;32.50;16.93;;;7.10;99.90;;;7.62;100.00;96189.75;4987222;28;20514;-74
2022/03/31 05:49:14;;;;;;;25.00;14.30;;;7.00;99.90;;;7.55;100.00;96185.41;4984734;28;20483;-74
2022/03/31 05:51:44;;;;;;;25.50;14.60;;;7.00;99.90;;;7.51;100.00;96181.63;4983680;28;20823;-74
2022/03/31 05:54:13;;;;;;;27.63;15.23;;;7.00;99.90;;;7.52;100.00;96185.03;4983985;28;20500;-74
2022/03/31 05:56:44;;;;;;;28.23;15.30;;;7.00;99.90;;;7.55;100.00;96184.59;4985395;28;20894;-74
2022/03/31 05:59:16;;;;;;;27.63;15.67;;;6.90;99.90;;;7.59;100.00;96180.56;4985908;28;20467;-74
2022/03/31 06:01:46;;;;;;;28.40;16.37;;;6.80;99.90;;;7.63;100.00;96186.13;4985328;28;20465;-74
2022/03/31 06:04:19;;;;;;;28.30;15.43;;;7.00;99.90;;;7.62;100.00;96189.75;4987372;28;20460;-74
2022/03/31 06:06:50;;;;;;;25.90;14.77;;;7.00;99.90;;;7.57;100.00;96188.56;4985542;28;20499;-74
2022/03/31 06:09:19;;;;;;;27.20;16.27;;;7.00;99.90;;;7.53;100.00;96184.81;4984750;28;20500;-74
2022/03/31 06:11:51;;;;;;;27.10;15.57;;;7.00;99.90;;;7.55;100.00;96184.59;4985129;28;20471;-74
2022/03/31 06:14:20;;;;;;;26.50;15.97;;;6.90;99.90;;;7.56;100.00;96186.19;4985608;28;20965;-74
2022/03/31 06:16:49;;;;;;;24.47;15.47;;;6.90;99.90;;;7.54;100.00;96178.59;4984866;28;20894;-74
2022/03/31 06:19:19;;;;;;;33.63;15.80;;;6.80;99.90;;;7.55;100.00;96182.00;4982396;28;20475;-74
2022/03/31 06:21:50;;;;;;;25.43;14.23;;;6.80;99.90;;;7.53;100.00;96181.44;4982516;28;20752;-74
2022/03/31 06:24:20;;;;;;;29.50;15.83;;;6.80;99.90;;;7.48;100.00;96184.66;4984054;28;20456;-74
2022/03/31 06:26:55;;;;;;;22.73;14.20;;;6.90;99.90;;;7.37;100.00;96187.94;4984524;28;20458;-74
2022/03/31 06:29:25;;;;;;;25.30;14.40;;;6.80;99.90;;;7.32;100.00;96190.41;4984049;28;20842;-74
2022/03/31 06:31:56;;;;;;;49.57;27.73;;;6.80;99.90;;;7.30;100.00;96202.81;4981234;28;21278;-80
2022/03/31 06:34:25;;;;;;;31.07;16.60;;;6.70;99.90;;;7.24;100.00;96195.84;4982061;28;21036;-74
2022/03/31 06:36:55;;;;;;;25.93;14.53;;;6.60;99.90;;;7.25;100.00;96202.66;4984769;28;20463;-74
2022/03/31 06:39:26;;;;;;;30.50;15.40;;;6.60;99.90;;;7.25;100.00;96207.06;4981846;28;20501;-74
2022/03/31 06:41:58;;;;;;;31.80;15.53;;;6.70;99.90;;;7.22;100.00;96200.44;4981698;28;20470;-74
2022/03/31 06:44:29;;;;;;;21.87;12.67;;;6.50;99.90;;;7.26;100.00;96208.63;4981739;28;20809;-74
2022/03/31 06:46:58;;;;;;;26.70;14.15;;;6.60;99.90;;;7.27;100.00;96202.44;4982247;28;20455;-74
2022/03/31 06:49:28;;;;;;;29.10;14.00;;;6.60;99.90;;;7.31;100.00;96207.00;4980814;28;20818;-74
2022/03/31 06:51:57;;;;;;;22.47;12.97;;;6.70;99.90;;;7.34;100.00;96208.38;4982003;28;20474;-74
2022/03/31 06:54:27;;;;;;;29.90;14.00;;;6.60;99.90;;;7.34;100.00;96214.38;4982807;28;21041;-74
2022/03/31 06:56:59;;;;;;;28.37;14.83;;;6.60;99.90;;;7.38;100.00;96215.53;4982580;28;20469;-74
2022/03/31 06:59:29;;;;;;;25.73;13.60;;;6.80;99.90;;;7.29;100.00;96205.63;4982985;28;21032;-75
2022/03/31 07:01:59;;;;;;;26.53;13.80;;;6.70;99.90;;;7.27;100.00;96198.03;4980940;28;20526;-75
2022/03/31 07:04:29;;;;;;;27.50;13.93;;;6.70;99.90;;;7.27;100.00;96195.44;4979722;28;20699;-75
2022/03/31 07:06:59;;;;;;;30.53;14.67;;;6.70;99.90;;;7.25;100.00;96197.47;4983348;28;20543;-74
2022/03/31 07:09:31;;;;;;;26.10;13.40;;;6.70;99.90;;;7.26;100.00;96196.44;4981777;28;21096;-74
2022/03/31 07:12:02;;;;;;;24.10;13.10;;;6.70;99.90;;;7.23;100.00;96202.06;4982183;28;20468;-74
2022/03/31 07:14:36;;;;;;;21.60;12.30;;;6.70;99.90;;;7.21;100.00;96198.88;4979761;28;20590;-73
2022/03/31 07:17:07;;;;;;;27.07;13.20;;;6.70;99.90;;;7.19;100.00;96194.88;4982020;28;20464;-73
2022/03/31 07:19:37;;;;;;;28.87;12.27;;;6.60;99.90;;;7.20;100.00;96197.28;4981462;28;20529;-69
2022/03/31 07:22:07;;;;;;;23.33;12.50;;;6.60;99.90;;;7.18;100.00;96194.13;4981585;28;20479;-72
2022/03/31 07:24:37;;;;;;;22.97;13.83;;;6.60;99.90;;;7.17;100.00;96195.13;4983161;28;20468;-73
2022/03/31 07:27:08;;;;;;;22.33;13.00;;;6.70;99.90;;;7.13;100.00;96188.75;4981643;28;20460;-71
2022/03/31 07:29:38;;;;;;;24.37;12.90;;;6.60;99.90;;;7.08;100.00;96194.56;4973778;28;20506;-72
2022/03/31 07:32:09;;;;;;;20.17;12.80;;;6.60;99.90;;;7.07;100.00;96194.78;4981772;28;20962;-72
2022/03/31 07:34:40;;;;;;;23.70;12.60;;;6.60;99.90;;;7.03;100.00;96199.59;4975456;28;20466;-72
2022/03/31 07:37:10;;;;;;;23.87;13.17;;;6.60;99.90;;;7.04;100.00;96203.00;4984438;28;20863;-72
2022/03/31 07:39:45;;;;;;;22.53;12.47;;;6.60;99.90;;;7.03;100.00;96199.59;4983784;28;20543;-72
2022/03/31 07:42:17;;;;;;;29.20;16.87;;;6.60;99.90;;;7.03;100.00;96211.78;4980681;28;20892;-73
2022/03/31 07:44:47;;;;;;;25.60;13.87;;;6.60;99.90;;;7.04;100.00;96198.59;4981850;28;20550;-73
2022/03/31 07:47:17;;;;;;;27.00;13.73;;;6.50;99.90;;;7.08;100.00;96198.94;4979627;28;20477;-72
2022/03/31 07:49:49;;;;;;;22.20;12.97;;;6.50;99.90;;;7.08;100.00;96196.34;4981483;28;20582;-71
2022/03/31 07:52:21;;;;;;;22.83;12.33;;;6.60;99.90;;;7.08;100.00;96204.16;4982108;28;20471;-74
2022/03/31 07:55:11;;;;;;;21.30;12.00;;;6.50;99.90;;;6.96;100.00;96209.25;4972533;28;20462;-74
2022/03/31 07:57:42;;;;;;;21.50;12.17;;;6.50;99.90;;;6.99;100.00;96210.63;4981069;28;20501;-73
2022/03/31 08:00:16;;;;;;;27.97;13.07;;;6.40;99.90;;;7.00;100.00;96207.03;4981604;28;20474;-70
2022/03/31 08:02:47;;;;;;;22.23;12.53;;;6.50;99.90;;;6.96;100.00;96211.03;4983349;28;20475;-71
2022/03/31 08:05:20;;;;;;;28.38;14.30;;;6.40;99.90;;;6.95;100.00;96204.25;4980071;28;20456;-70
2022/03/31 08:07:50;;;;;;;21.60;12.93;;;6.50;99.90;;;6.96;100.00;96206.66;4981083;28;20517;-70
2022/03/31 08:10:23;;;;;;;27.10;12.30;;;6.40;99.90;;;6.98;100.00;96199.44;4983464;28;20557;-70
2022/03/31 08:12:54;;;;;;;24.53;12.60;;;6.50;99.90;;;6.96;100.00;96201.44;4982613;28;20456;-70
2022/03/31 08:15:24;;;;;;;19.20;10.53;;;6.50;99.90;;;6.84;100.00;96202.31;4981646;28;20507;-70
2022/03/31 08:17:54;;;;;;;25.53;12.60;;;6.40;99.90;;;6.84;100.00;96197.13;4983404;28;20459;-70
2022/03/31 08:20:25;;;;;;;18.53;11.83;;;6.30;99.90;;;6.86;100.00;96195.91;4981136;28;20468;-70
2022/03/31 08:22:54;;;;;;;20.83;11.90;;;6.40;99.90;;;6.89;100.00;96194.69;4982088;28;20510;-70
2022/03/31 08:25:25;;;;;;;19.70;12.20;;;6.30;99.90;;;6.91;100.00;96198.66;4984862;28;20804;-72
2022/03/31 08:27:57;;;;;;;24.87;13.90;;;6.40;99.90;;;6.95;100.00;96196.44;4984497;28;20571;-73
2022/03/31 08:30:28;;;;;;;24.60;14.32;;;6.50;99.90;;;7.02;100.00;96184.22;4983600;28;20468;-73
2022/03/31 08:32:59;;;;;;;23.10;12.57;;;6.60;99.90;;;7.05;100.00;96188.97;4985086;28;20574;-73
2022/03/31 08:35:29;;;;;;;48.43;23.63;;;6.50;99.90;;;7.12;100.00;96191.53;4984635;28;21269;-73
2022/03/31 08:37:59;;;;;;;22.10;12.33;;;6.50;99.90;;;7.20;100.00;96188.69;4985924;28;20894;-73
2022/03/31 08:40:31;;;;;;;22.50;13.48;;;6.60;99.90;;;7.23;100.00;96189.06;4982039;28;20465;-72
2022/03/31 08:43:02;;;;;;;21.77;12.70;;;6.70;99.90;;;7.27;100.00;96190.22;4983641;28;21003;-72
2022/03/31 08:45:37;;;;;;;21.83;12.70;;;6.70;99.90;;;7.31;100.00;96201.81;4983036;28;20471;-73
2022/03/31 08:48:10;;;;;;;22.80;12.47;;;6.80;99.90;;;7.36;100.00;96201.16;4985146;28;20455;-72
2022/03/31 08:50:41;;;;;;;21.97;10.70;;;6.80;99.90;;;7.33;100.00;96202.38;4984187;28;20506;-73
2022/03/31 08:53:11;;;;;;;18.87;11.13;;;6.80;99.90;;;7.32;100.00;96200.00;4983943;28;20451;-73
2022/03/31 08:55:41;;;;;;;18.10;10.70;;;6.80;99.90;;;7.32;100.00;96206.00;4984096;28;20464;-73
2022/03/31 08:58:12;;;;;;;17.93;10.97;;;6.80;99.90;;;7.36;100.00;96209.75;4982082;28;20494;-73
2022/03/31 09:00:42;;;;;;;18.63;11.00;;;6.80;99.90;;;7.35;100.00;96209.97;4986124;28;20460;-73
2022/03/31 09:03:12;;;;;;;16.43;10.50;;;6.80;99.90;;;7.31;100.00;96206.19;4984944;28;20479;-74
2022/03/31 09:05:45;;;;;;;26.30;11.40;;;6.70;99.90;;;7.38;100.00;96210.34;4984872;28;20467;-74
2022/03/31 09:08:18;;;;;;;20.67;11.30;;;6.80;99.90;;;7.41;100.00;96206.53;4981433;28;20479;-73
2022/03/31 09:10:51;;;;;;;19.80;11.40;;;6.80;99.90;;;7.43;100.00;96204.50;4983534;28;20534;-74
2022/03/31 09:13:24;;;;;;;19.23;10.93;;;6.80;99.90;;;7.42;100.00;96210.72;4982959;28;20462;-73
2022/03/31 09:15:57;;;;;;;19.40;10.80;;;6.90;99.90;;;7.35;100.00;96210.78;4984980;28;20471;-73
2022/03/31 09:18:31;;;;;;;17.40;10.83;;;6.80;99.90;;;7.38;100.00;96210.34;4983011;28;20469;-71
2022/03/31 09:21:03;;;;;;;18.70;9.97;;;6.80;99.90;;;7.37;100.00;96203.56;4983381;28;21084;-72
2022/03/31 09:23:42;;;;;;;20.93;10.20;;;6.90;99.90;;;7.34;100.00;96201.38;4983529;28;20995;-73
2022/03/31 09:26:13;;;;;;;20.30;11.43;;;6.80;99.90;;;7.36;100.00;96201.94;4983579;28;20554;-71
2022/03/31 09:28:46;;;;;;;23.17;11.63;;;6.90;99.90;;;7.45;100.00;96198.09;4983153;28;20578;-70
2022/03/31 09:31:27;;;;;;;23.40;11.03;;;6.90;99.90;;;7.56;100.00;96202.59;4983863;28;20483;-70
2022/03/31 09:33:59;;;;;;;19.63;11.27;;;7.00;99.90;;;7.56;100.00;96202.59;4985544;28;20966;-70
2022/03/31 09:36:28;;;;;;;22.63;12.13;;;7.00;99.90;;;7.60;100.00;96195.94;4984071;28;20456;-70
2022/03/31 09:39:02;;;;;;;20.80;12.47;;;7.00;99.90;;;7.59;100.00;96206.56;4983223;28;20499;-70
2022/03/31 09:41:33;;;;;;;16.60;10.67;;;7.00;99.90;;;7.57;100.00;96196.38;4974418;28;20999;-72
2022/03/31 09:44:07;;;;;;;21.30;11.53;;;7.00;99.90;;;7.61;100.00;96204.53;4984900;28;20459;-73
2022/03/31 09:46:39;;;;;;;21.67;10.17;;;7.00;99.90;;;7.73;100.00;96204.66;4982974;28;20459;-71
2022/03/31 09:49:16;;;;;;;20.57;11.93;;;7.10;99.90;;;7.74;100.00;96209.63;4984970;28;20453;-71
2022/03/31 09:51:49;;;;;;;16.47;10.17;;;7.10;99.90;;;7.67;100.00;96213.31;4980787;28;20768;-71
2022/03/31 09:54:23;;;;;;;21.08;11.93;;;7.10;99.90;;;7.62;100.00;96205.34;4981483;28;20503;-71
2022/03/31 09:56:53;;;;;;;17.92;11.52;;;7.10;99.90;;;7.57;100.00;96195.56;4981372;28;20471;-71
2022/03/31 09:59:31;;;;;;;20.27;13.23;;;7.10;99.90;;;7.67;100.00;96195.09;4981118;28;20460;-72
2022/03/31 10:02:01;;;;;;;23.17;13.75;;;7.10;99.90;;;7.73;100.00;96200.25;4981678;28;20461;-71
2022/03/31 10:04:31;;;;;;;18.53;11.60;;;7.20;99.90;;;7.82;100.00;96200.75;4982713;28;20205;-71
2022/03/31 10:07:02;;;;;;;26.58;13.00;;;7.30;99.90;;;7.86;100.00;96187.09;4982937;28;20462;-71
2022/03/31 10:09:32;;;;;;;18.37;11.07;;;7.30;99.90;;;7.89;100.00;96196.28;4982118;28;20217;-73
2022/03/31 10:12:14;;;;;;;22.23;13.60;;;7.30;99.90;;;7.96;100.00;96186.59;4983681;28;20455;-78
2022/03/31 10:14:55;;;;;;;20.88;13.18;;;7.40;99.90;;;8.03;100.00;96187.31;4980047;28;20468;-81
2022/03/31 10:17:30;;;;;;;19.73;13.38;;;7.60;99.90;;;8.10;100.00;96177.63;4983306;28;20935;-74
2022/03/31 10:20:09;;;;;;;18.23;11.30;;;7.60;99.90;;;8.11;100.00;96184.44;4984084;28;20299;-76
2022/03/31 10:25:37;;;;;;;20.77;13.02;;;7.50;99.90;;;8.18;100.00;96172.16;4981556;28;20465;-77
2022/03/31 10:28:12;;;;;;;24.33;13.05;;;7.70;99.90;;;8.25;100.00;96175.47;4981004;28;20491;-76
2022/03/31 10:30:56;;;;;;;23.87;12.67;;;7.80;99.90;;;8.20;100.00;96167.50;4982558;28;20560;-76
2022/03/31 10:33:32;;;;;;;17.00;10.23;;;7.80;99.90;;;8.20;100.00;96169.31;4984928;28;20489;-73
2022/03/31 10:36:09;;;;;;;18.87;11.43;;;7.60;99.90;;;8.22;100.00;96168.09;4984354;28;20448;-76
2022/03/31 10:38:53;;;;;;;21.23;12.70;;;7.70;99.90;;;8.26;100.00;96169.22;4982790;28;20460;-75